createdAt,value
2022-12-19T00:01:40.949Z,78.95
2022-12-19T00:04:11.671Z,69.57
2022-12-19T00:06:43.504Z,65.55
2022-12-19T00:09:12.426Z,63.55
2022-12-19T00:11:39.619Z,76.00
2022-12-19T00:14:09.222Z,68.63
2022-12-19T00:16:36.033Z,75.00
2022-12-19T00:19:03.865Z,73.72
2022-12-19T00:21:35.072Z,66.55
2022-12-19T00:24:06.604Z,59.75
2022-12-19T00:26:47.798Z,69.88
2022-12-19T00:29:14.949Z,62.33
2022-12-19T00:31:43.137Z,65.43
2022-12-19T00:34:10.284Z,57.20
2022-12-19T00:36:37.187Z,68.63
2022-12-19T00:39:08.535Z,61.42
2022-12-19T00:41:37.146Z,68.82
2022-12-19T00:44:07.065Z,69.43
2022-12-19T00:46:35.025Z,69.93
2022-12-19T00:49:03.663Z,66.30
2022-12-19T00:51:33.425Z,81.43
2022-12-19T00:54:00.542Z,59.53
2022-12-19T00:56:33.441Z,62.28
2022-12-19T00:59:04.117Z,69.28
2022-12-19T01:01:34.418Z,63.00
2022-12-19T01:06:49.931Z,61.28
2022-12-19T01:09:17.707Z,62.58
2022-12-19T01:12:03.377Z,74.22
2022-12-19T01:14:30.177Z,65.85
2022-12-19T01:16:57.254Z,67.63
2022-12-19T01:19:24.051Z,69.68
2022-12-19T01:21:51.101Z,69.78
2022-12-19T01:24:19.049Z,71.32
2022-12-19T01:26:46.552Z,60.20
2022-12-19T01:29:13.319Z,72.80
2022-12-19T01:31:40.504Z,71.57
2022-12-19T01:34:07.351Z,56.15
2022-12-19T01:36:36.336Z,62.22
2022-12-19T01:39:06.759Z,70.68
2022-12-19T01:41:34.157Z,67.07
2022-12-19T01:44:03.865Z,62.13
2022-12-19T01:46:41.268Z,72.85
2022-12-19T01:49:16.317Z,65.60
2022-12-19T01:51:48.194Z,77.10
2022-12-19T01:54:19.993Z,71.43
2022-12-19T01:56:50.884Z,61.80
2022-12-19T01:59:22.606Z,68.30
2022-12-19T02:01:54.381Z,68.22
2022-12-19T02:04:21.652Z,62.13
2022-12-19T02:06:50.153Z,67.80
2022-12-19T02:09:17.561Z,69.40
2022-12-19T02:11:44.677Z,58.92
2022-12-19T02:14:11.559Z,60.22
2022-12-19T02:16:48.588Z,69.57
2022-12-19T02:20:05.150Z,64.97
2022-12-19T02:23:02.001Z,64.10
2022-12-19T02:25:51.266Z,79.53
2022-12-19T02:28:51.556Z,59.40
2022-12-19T02:31:41.428Z,68.18
2022-12-19T02:34:08.441Z,67.57
2022-12-19T02:36:45.400Z,62.47
2022-12-19T02:39:33.707Z,63.80
2022-12-19T02:42:02.403Z,69.43
2022-12-19T02:44:51.814Z,65.72
2022-12-19T02:47:21.557Z,58.47
2022-12-19T02:49:49.109Z,68.13
2022-12-19T02:52:18.789Z,66.80
2022-12-19T02:54:52.091Z,75.57
2022-12-19T02:57:40.479Z,77.03
2022-12-19T03:00:07.673Z,64.00
2022-12-19T03:03:00.935Z,75.35
2022-12-19T03:06:12.812Z,66.70
2022-12-19T03:08:57.679Z,74.60
2022-12-19T03:11:29.435Z,64.55
2022-12-19T03:14:09.912Z,75.90
2022-12-19T03:16:37.363Z,66.80
2022-12-19T03:19:08.611Z,71.55
2022-12-19T03:21:44.734Z,66.03
2022-12-19T03:24:14.026Z,69.70
2022-12-19T03:27:02.165Z,51.80
2022-12-19T03:29:37.918Z,65.72
2022-12-19T03:32:09.159Z,63.60
2022-12-19T03:34:46.042Z,75.57
2022-12-19T03:37:22.572Z,72.60
2022-12-19T03:39:54.557Z,60.53
2022-12-19T03:42:44.415Z,66.70
2022-12-19T03:45:13.482Z,68.45
2022-12-19T03:47:44.264Z,58.47
2022-12-19T03:50:11.231Z,66.85
2022-12-19T03:52:57.152Z,77.22
2022-12-19T03:56:10.713Z,67.05
2022-12-19T03:58:43.652Z,73.72
2022-12-19T04:01:10.588Z,78.30
2022-12-19T04:03:37.671Z,65.88
2022-12-19T04:06:06.177Z,57.08
2022-12-19T04:08:35.509Z,67.35
2022-12-19T04:11:09.535Z,74.25
2022-12-19T04:13:54.744Z,64.70
2022-12-19T04:16:27.659Z,57.47
2022-12-19T04:19:11.027Z,57.47
2022-12-19T04:22:01.931Z,75.67
2022-12-19T04:24:37.666Z,67.32
2022-12-19T04:27:08.235Z,58.00
2022-12-19T04:29:38.543Z,71.68
2022-12-19T04:32:06.852Z,75.28
2022-12-19T04:34:35.990Z,68.72
2022-12-19T04:37:05.256Z,70.47
2022-12-19T04:39:33.017Z,71.28
2022-12-19T04:42:00.106Z,77.43
2022-12-19T04:44:27.162Z,75.47
2022-12-19T04:46:54.032Z,77.40
2022-12-19T04:49:21.439Z,76.32
2022-12-19T04:51:48.300Z,84.03
2022-12-19T04:54:15.330Z,89.88
2022-12-19T04:56:42.149Z,91.07
2022-12-19T04:59:09.997Z,112.13
2022-12-19T05:01:37.109Z,103.35
2022-12-19T05:04:04.818Z,105.60
2022-12-19T05:06:32.352Z,97.20
2022-12-19T05:09:02.378Z,97.32
2022-12-19T05:11:29.165Z,90.47
2022-12-19T05:13:56.268Z,81.22
2022-12-19T05:16:23.072Z,79.15
2022-12-19T05:18:50.146Z,74.07
2022-12-19T05:21:16.964Z,80.72
2022-12-19T05:23:44.077Z,69.40
2022-12-19T05:26:11.557Z,83.00
2022-12-19T05:28:41.530Z,71.47
2022-12-19T05:31:20.041Z,74.85
2022-12-19T05:33:48.004Z,67.90
2022-12-19T05:36:16.766Z,69.97
2022-12-19T05:38:44.275Z,73.25
2022-12-19T05:41:16.726Z,63.22
2022-12-19T05:43:45.238Z,72.90
2022-12-19T05:46:12.614Z,68.45
2022-12-19T05:48:39.739Z,64.88
2022-12-19T05:51:07.100Z,73.18
2022-12-19T05:53:38.539Z,74.90
2022-12-19T05:56:17.630Z,75.15
2022-12-19T05:58:46.123Z,60.35
2022-12-19T06:01:17.469Z,56.95
2022-12-19T06:03:45.152Z,79.18
2022-12-19T06:06:19.664Z,62.80
2022-12-19T06:08:47.231Z,57.85
2022-12-19T06:11:14.936Z,71.93
2022-12-19T06:13:42.305Z,64.60
2022-12-19T06:16:14.858Z,72.03
2022-12-19T06:18:45.049Z,83.60
2022-12-19T06:21:17.567Z,68.57
2022-12-19T06:23:45.469Z,67.35
2022-12-19T06:26:18.719Z,68.65
2022-12-19T06:28:48.268Z,68.75
2022-12-19T06:31:15.765Z,67.80
2022-12-19T06:33:42.999Z,68.18
2022-12-19T06:36:22.435Z,73.95
2022-12-19T06:38:50.790Z,65.07
2022-12-19T06:41:38.199Z,73.47
2022-12-19T06:44:10.515Z,55.50
2022-12-19T06:49:06.527Z,65.78
2022-12-19T06:51:33.830Z,57.28
2022-12-19T06:54:00.927Z,58.92
2022-12-19T06:56:28.230Z,62.25
2022-12-19T06:58:55.332Z,54.78
2022-12-19T07:01:47.957Z,56.67
2022-12-19T07:04:18.741Z,58.72
2022-12-19T07:06:49.062Z,56.42
2022-12-19T07:09:17.424Z,64.05
2022-12-19T07:11:44.242Z,65.97
2022-12-19T07:14:11.305Z,66.00
2022-12-19T07:16:38.418Z,52.80
2022-12-19T07:19:08.899Z,63.95
2022-12-19T07:21:36.736Z,52.05
2022-12-19T07:24:04.462Z,47.05
2022-12-19T07:26:31.926Z,60.38
2022-12-19T07:29:00.468Z,53.22
2022-12-19T07:31:27.359Z,54.55
2022-12-19T07:33:54.466Z,43.45
2022-12-19T07:36:21.231Z,48.80
2022-12-19T07:38:51.136Z,42.47
2022-12-19T07:41:18.022Z,48.00
2022-12-19T07:43:45.718Z,44.80
2022-12-19T07:46:12.627Z,46.78
2022-12-19T07:48:39.682Z,56.13
2022-12-19T07:51:06.679Z,37.90
2022-12-19T07:53:33.795Z,49.53
2022-12-19T07:56:00.534Z,35.92
2022-12-19T07:58:27.821Z,44.67
2022-12-19T08:01:00.789Z,38.13
2022-12-19T08:03:28.534Z,43.03
2022-12-19T08:06:02.672Z,44.33
2022-12-19T08:08:30.451Z,41.88
2022-12-19T08:11:06.864Z,35.53
2022-12-19T08:13:39.680Z,31.40
2022-12-19T08:16:10.693Z,27.45
2022-12-19T08:18:38.067Z,30.67
2022-12-19T08:21:04.886Z,30.35
2022-12-19T08:23:33.044Z,37.65
2022-12-19T08:26:03.881Z,26.55
2022-12-19T08:28:32.927Z,34.13
2022-12-19T08:31:05.655Z,28.30
2022-12-19T08:33:32.775Z,31.60
2022-12-19T08:36:04.286Z,41.13
2022-12-19T08:38:31.342Z,26.92
2022-12-19T08:40:58.072Z,30.38
2022-12-19T08:43:27.103Z,32.05
2022-12-19T08:45:54.354Z,36.30
2022-12-19T08:48:21.746Z,34.92
2022-12-19T08:50:57.054Z,42.35
2022-12-19T08:53:26.628Z,30.98
2022-12-19T08:55:55.920Z,30.67
2022-12-19T08:58:24.410Z,33.72
2022-12-19T09:00:57.570Z,31.77
2022-12-19T09:03:26.526Z,39.65
2022-12-19T09:06:08.160Z,36.75
2022-12-19T09:08:40.385Z,33.65
2022-12-19T09:11:12.200Z,24.70
2022-12-19T09:13:40.649Z,30.23
2022-12-19T09:16:21.963Z,30.00
2022-12-19T09:18:51.651Z,31.83
2022-12-19T09:21:21.169Z,34.65
2022-12-19T09:24:01.943Z,33.90
2022-12-19T09:26:32.899Z,29.63
2022-12-19T09:29:01.318Z,33.05
2022-12-19T09:31:29.184Z,37.42
2022-12-19T09:33:56.452Z,33.92
2022-12-19T09:36:24.983Z,26.77
2022-12-19T09:38:57.449Z,37.55
2022-12-19T09:41:41.301Z,30.75
2022-12-19T09:46:51.963Z,30.95
2022-12-19T09:49:23.063Z,32.60
2022-12-19T09:51:59.175Z,32.35
2022-12-19T09:54:38.755Z,36.05
2022-12-19T09:57:33.207Z,33.92
2022-12-19T10:00:22.251Z,39.72
2022-12-19T10:03:07.809Z,27.67
2022-12-19T10:07:16.108Z,30.70
2022-12-19T10:09:20.197Z,32.63
2022-12-19T10:12:44.784Z,27.73
2022-12-19T10:14:30.163Z,32.08
2022-12-19T10:17:26.539Z,29.20
2022-12-19T10:20:15.115Z,35.20
2022-12-19T10:22:50.933Z,32.38
2022-12-19T10:25:25.990Z,30.85
2022-12-19T10:28:34.459Z,39.03
2022-12-19T10:31:29.020Z,32.50
2022-12-19T10:34:07.738Z,38.17
2022-12-19T10:37:24.487Z,30.17
2022-12-19T10:39:46.139Z,32.10
2022-12-19T10:42:19.770Z,33.17
2022-12-19T10:44:49.403Z,31.77
2022-12-19T10:47:17.400Z,36.30
2022-12-19T10:49:44.480Z,34.15
2022-12-19T10:52:13.059Z,29.85
2022-12-19T10:54:44.024Z,29.17
2022-12-19T10:57:21.585Z,36.70
2022-12-19T11:00:16.396Z,37.13
2022-12-19T11:02:45.245Z,36.13
2022-12-19T11:05:43.418Z,29.67
2022-12-19T11:08:28.162Z,29.15
2022-12-19T11:12:01.068Z,29.75
2022-12-19T11:19:49.152Z,26.85
2022-12-19T11:20:51.290Z,28.10
2022-12-19T11:29:16.170Z,27.55
2022-12-19T11:29:18.860Z,35.15
2022-12-19T11:29:42.132Z,28.15
2022-12-19T11:30:36.186Z,30.13
2022-12-19T11:32:31.884Z,35.00
2022-12-19T11:34:25.130Z,27.95
2022-12-19T11:37:21.323Z,34.35
2022-12-19T11:39:54.432Z,27.45
2022-12-19T11:42:25.513Z,36.42
2022-12-19T11:45:17.765Z,30.98
2022-12-19T11:47:53.620Z,31.50
2022-12-19T11:50:26.684Z,32.95
2022-12-19T11:53:48.147Z,33.47
2022-12-19T11:56:19.339Z,35.83
2022-12-19T11:58:50.405Z,34.15
2022-12-19T12:01:48.234Z,30.80
2022-12-19T12:04:26.936Z,28.48
2022-12-19T12:06:55.981Z,33.80
2022-12-19T12:12:55.112Z,36.50
2022-12-19T12:20:01.332Z,26.95
2022-12-19T12:25:21.379Z,38.80
2022-12-19T12:31:17.721Z,30.50
2022-12-19T12:31:31.376Z,31.55
2022-12-19T12:31:50.445Z,30.40
2022-12-19T12:32:02.053Z,27.75
2022-12-19T12:32:06.759Z,35.67
2022-12-19T12:35:45.383Z,34.65
2022-12-19T12:40:25.570Z,32.90
2022-12-19T12:43:14.349Z,34.75
2022-12-19T12:45:45.042Z,39.90
2022-12-19T12:48:30.099Z,31.25
2022-12-19T12:51:01.206Z,38.50
2022-12-19T12:53:34.467Z,31.35
2022-12-19T12:56:05.651Z,25.85
2022-12-19T12:58:49.868Z,34.40
2022-12-19T13:01:33.608Z,31.85
2022-12-19T13:04:05.711Z,29.55
2022-12-19T13:06:37.093Z,29.77
2022-12-19T13:09:08.856Z,38.30
2022-12-19T13:11:59.559Z,32.63
2022-12-19T13:14:35.587Z,32.92
2022-12-19T13:17:06.476Z,34.03
2022-12-19T13:19:35.773Z,28.67
2022-12-19T13:22:07.451Z,30.63
2022-12-19T13:24:55.672Z,31.00
2022-12-19T13:27:22.677Z,34.05
2022-12-19T13:30:12.515Z,34.47
2022-12-19T13:32:39.520Z,32.58
2022-12-19T13:36:34.656Z,36.25
2022-12-19T13:39:59.623Z,27.92
2022-12-19T13:41:48.094Z,30.40
2022-12-19T13:44:21.360Z,35.28
2022-12-19T13:46:49.563Z,29.50
2022-12-19T13:49:31.843Z,35.10
2022-12-19T13:52:03.851Z,38.40
2022-12-19T13:54:36.883Z,33.70
2022-12-19T13:57:09.768Z,32.70
2022-12-19T13:59:40.404Z,37.17
2022-12-19T14:02:31.857Z,34.63
2022-12-19T14:04:59.751Z,36.30
2022-12-19T14:07:40.698Z,31.70
2022-12-19T14:11:31.330Z,35.92
2022-12-19T14:13:58.917Z,36.45
2022-12-19T14:16:44.201Z,36.03
2022-12-19T14:19:30.936Z,29.40
2022-12-19T14:22:20.665Z,32.67
2022-12-19T14:25:32.152Z,30.90
2022-12-19T14:28:20.450Z,36.25
2022-12-19T14:30:50.298Z,33.38
2022-12-19T14:33:44.324Z,36.63
2022-12-19T14:36:25.712Z,29.73
2022-12-19T14:39:23.114Z,34.30
2022-12-19T14:42:04.771Z,35.22
2022-12-19T14:54:01.592Z,30.77
2022-12-19T14:54:07.367Z,32.85
2022-12-19T14:54:15.964Z,36.03
2022-12-19T14:54:50.269Z,36.38
2022-12-19T14:59:03.747Z,33.92
2022-12-19T15:01:33.693Z,36.60
2022-12-19T15:04:48.138Z,35.20
2022-12-19T15:07:09.059Z,40.63
2022-12-19T15:11:07.501Z,39.38
2022-12-19T15:14:47.667Z,30.98
2022-12-19T15:16:03.458Z,39.85
2022-12-19T15:18:33.357Z,37.08
2022-12-19T15:21:06.596Z,40.40
2022-12-19T15:23:33.691Z,36.13
2022-12-19T15:26:06.089Z,41.15
2022-12-19T15:28:42.242Z,45.03
2022-12-19T15:31:38.575Z,36.47
2022-12-19T15:34:37.308Z,34.60
2022-12-19T15:37:05.988Z,36.28
2022-12-19T15:39:32.781Z,50.15
2022-12-19T15:42:01.378Z,47.50
2022-12-19T15:44:34.334Z,41.25
2022-12-19T15:47:03.956Z,30.90
2022-12-19T15:49:32.799Z,43.80
2022-12-19T15:52:00.090Z,35.92
2022-12-19T15:57:34.222Z,44.35
2022-12-19T16:00:05.281Z,38.28
2022-12-19T16:05:25.155Z,42.30
2022-12-19T16:07:52.491Z,41.58
2022-12-19T16:10:19.260Z,39.05
2022-12-19T16:12:55.846Z,32.50
2022-12-19T16:15:27.582Z,48.60
2022-12-19T16:17:55.342Z,38.83
2022-12-19T16:20:27.934Z,31.80
2022-12-19T16:22:55.400Z,38.20
2022-12-19T16:25:25.938Z,36.08
2022-12-19T16:27:58.466Z,47.30
2022-12-19T16:30:30.825Z,38.60
2022-12-19T16:32:58.316Z,46.50
2022-12-19T16:36:02.406Z,38.58
2022-12-19T16:38:15.707Z,41.08
2022-12-19T16:40:43.645Z,32.70
2022-12-19T16:43:29.510Z,37.15
2022-12-19T16:46:01.102Z,40.20
2022-12-19T16:48:30.193Z,35.00
2022-12-19T16:50:58.514Z,31.38
2022-12-19T16:53:26.059Z,39.28
2022-12-19T16:55:55.650Z,32.38
2022-12-19T16:58:25.201Z,40.50
2022-12-19T17:00:56.375Z,38.45
2022-12-19T17:03:29.592Z,39.03
2022-12-19T17:05:56.604Z,40.13
2022-12-19T17:08:24.335Z,34.05
2022-12-19T17:10:52.948Z,39.72
2022-12-19T17:13:21.409Z,45.42
2022-12-19T17:15:56.008Z,33.50
2022-12-19T17:18:36.020Z,37.95
2022-12-19T17:21:03.069Z,40.55
2022-12-19T17:23:32.556Z,40.53
2022-12-19T17:26:00.856Z,42.78
2022-12-19T17:28:29.407Z,39.67
2022-12-19T17:30:59.355Z,56.35
2022-12-19T17:33:35.007Z,45.13
2022-12-19T17:36:02.900Z,38.53
2022-12-19T17:38:30.995Z,39.67
2022-12-19T17:40:58.378Z,35.45
2022-12-19T17:43:25.576Z,47.83
2022-12-19T17:45:52.661Z,38.30
2022-12-19T17:48:27.876Z,42.55
2022-12-19T17:50:55.547Z,39.50
2022-12-19T17:53:23.084Z,30.60
2022-12-19T17:55:50.343Z,33.63
2022-12-19T17:58:17.801Z,36.28
2022-12-19T18:00:47.353Z,42.33
2022-12-19T18:03:24.904Z,36.63
2022-12-19T18:05:54.672Z,38.00
2022-12-19T18:08:26.427Z,37.22
2022-12-19T18:10:54.190Z,34.08
2022-12-19T18:13:21.330Z,38.25
2022-12-19T18:15:48.288Z,41.75
2022-12-19T18:18:18.613Z,44.80
2022-12-19T18:20:45.370Z,35.22
2022-12-19T18:23:21.198Z,34.83
2022-12-19T18:25:49.048Z,47.80
2022-12-19T18:28:16.313Z,48.85
2022-12-19T18:30:44.847Z,38.25
2022-12-19T18:33:23.115Z,35.83
2022-12-19T18:35:50.970Z,41.13
2022-12-19T18:38:23.327Z,34.50
2022-12-19T18:40:54.606Z,37.00
2022-12-19T18:43:21.709Z,46.97
2022-12-19T18:45:52.161Z,33.45
2022-12-19T18:48:25.195Z,38.45
2022-12-19T18:50:53.219Z,45.63
2022-12-19T18:53:21.841Z,42.08
2022-12-19T18:55:50.991Z,38.63
2022-12-19T18:58:20.549Z,37.47
2022-12-19T19:00:49.576Z,44.53
2022-12-19T19:03:23.538Z,42.92
2022-12-19T19:05:51.196Z,47.58
2022-12-19T19:08:25.085Z,39.10
2022-12-19T19:10:53.937Z,40.00
2022-12-19T19:13:22.469Z,49.17
2022-12-19T19:15:56.795Z,38.47
2022-12-19T19:18:43.920Z,39.08
2022-12-19T19:21:13.223Z,34.47
2022-12-19T19:23:47.168Z,42.80
2022-12-19T19:26:13.940Z,37.03
2022-12-19T19:28:41.041Z,44.15
2022-12-19T19:31:12.805Z,43.95
2022-12-19T19:33:42.834Z,45.63
2022-12-19T19:36:15.585Z,32.53
2022-12-19T19:38:47.363Z,42.35
2022-12-19T19:41:14.110Z,42.50
2022-12-19T19:43:41.370Z,36.25
2022-12-19T19:46:08.211Z,44.28
2022-12-19T19:48:35.718Z,32.67
2022-12-19T19:51:02.574Z,47.25
2022-12-19T19:53:29.764Z,40.10
2022-12-19T19:56:01.212Z,46.65
2022-12-19T19:58:29.240Z,41.78
2022-12-19T20:00:56.792Z,44.00
2022-12-19T20:03:24.541Z,40.60
2022-12-19T20:05:59.883Z,43.13
2022-12-19T20:08:27.144Z,35.50
2022-12-19T20:10:58.803Z,48.72
2022-12-19T20:13:30.352Z,35.85
2022-12-19T20:16:09.699Z,44.47
2022-12-19T20:18:40.302Z,41.05
2022-12-19T20:21:12.695Z,47.10
2022-12-19T20:23:42.666Z,48.30
2022-12-19T20:26:11.409Z,49.53
2022-12-19T20:28:46.008Z,44.92
2022-12-19T20:31:15.014Z,36.47
2022-12-19T20:33:42.257Z,44.13
2022-12-19T20:36:11.431Z,47.28
2022-12-19T20:38:38.829Z,49.20
2022-12-19T20:41:05.690Z,45.83
2022-12-19T20:43:33.753Z,41.67
2022-12-19T20:46:02.354Z,47.05
2022-12-19T20:48:29.465Z,49.38
2022-12-19T20:51:00.509Z,49.35
2022-12-19T20:53:27.571Z,47.20
2022-12-19T20:55:58.326Z,38.15
2022-12-19T20:58:27.145Z,45.78
2022-12-19T21:01:02.650Z,49.78
2022-12-19T21:03:30.560Z,47.83
2022-12-19T21:05:58.208Z,43.95
2022-12-19T21:08:26.220Z,39.67
2022-12-19T21:10:53.812Z,40.10
2022-12-19T21:13:22.985Z,54.20
2022-12-19T21:15:54.522Z,59.97
2022-12-19T21:18:23.479Z,42.03
2022-12-19T21:20:54.785Z,46.45
2022-12-19T21:23:23.622Z,41.33
2022-12-19T21:25:50.433Z,44.60
2022-12-19T21:28:17.606Z,44.08
2022-12-19T21:30:44.641Z,48.50
2022-12-19T21:33:11.662Z,46.72
2022-12-19T21:35:39.102Z,38.50
2022-12-19T21:38:06.143Z,50.67
2022-12-19T21:40:36.151Z,43.38
2022-12-19T21:43:11.197Z,47.67
2022-12-19T21:45:38.708Z,46.55
2022-12-19T21:48:08.658Z,46.95
2022-12-19T21:50:35.643Z,47.75
2022-12-19T21:53:02.700Z,41.22
2022-12-19T21:55:29.507Z,40.72
2022-12-19T21:57:56.741Z,40.42
2022-12-19T22:00:23.756Z,39.53
2022-12-19T22:03:12.741Z,50.78
2022-12-19T22:05:38.606Z,48.90
2022-12-19T22:08:05.692Z,47.83
2022-12-19T22:10:32.477Z,40.97
2022-12-19T22:12:59.556Z,47.97
2022-12-19T22:15:26.511Z,42.30
2022-12-19T22:17:53.565Z,47.55
2022-12-19T22:20:20.347Z,43.53
2022-12-19T22:22:47.413Z,45.15
2022-12-19T22:25:14.330Z,38.53
2022-12-19T22:27:41.373Z,54.35
2022-12-19T22:30:11.248Z,38.70
2022-12-19T22:32:38.642Z,46.15
2022-12-19T22:35:06.087Z,55.92
2022-12-19T22:37:33.246Z,57.72
2022-12-19T22:40:00.314Z,50.63
2022-12-19T22:42:30.334Z,42.97
2022-12-19T22:44:57.098Z,39.45
2022-12-19T22:47:24.126Z,48.75
2022-12-19T22:49:52.162Z,56.85
2022-12-19T22:52:19.445Z,48.83
2022-12-19T22:54:46.225Z,51.13
2022-12-19T22:57:13.331Z,50.15
2022-12-19T22:59:43.257Z,57.65
2022-12-19T23:02:10.493Z,55.15
2022-12-19T23:04:37.486Z,55.40
2022-12-19T23:07:04.550Z,49.33
2022-12-19T23:09:31.328Z,46.38
2022-12-19T23:11:58.366Z,50.45
2022-12-19T23:14:25.150Z,58.60
2022-12-19T23:16:52.388Z,42.67
2022-12-19T23:19:19.226Z,55.60
2022-12-19T23:21:47.202Z,45.22
2022-12-19T23:24:14.179Z,52.72
2022-12-19T23:26:41.313Z,46.85
2022-12-19T23:29:14.256Z,42.92
2022-12-19T23:31:43.934Z,43.50
2022-12-19T23:34:11.236Z,45.00
2022-12-19T23:37:09.520Z,47.55
2022-12-19T23:39:25.854Z,46.45
2022-12-19T23:41:52.909Z,52.25
2022-12-19T23:44:19.951Z,53.70
2022-12-19T23:46:47.027Z,46.75
2022-12-19T23:49:13.800Z,48.05
2022-12-19T23:51:40.862Z,48.60
2022-12-19T23:54:08.865Z,48.75
2022-12-19T23:56:36.086Z,50.15
2022-12-19T23:59:03.158Z,46.88
